Hovedside
METAR-TAF:

METAR-TAF

Lufthavner :

Kuressaare lufthavn

Kuressaare, Estland

breddegrad: 58-13-48N, lengdegrad: 022-30-34E, høyde over havet: 4 m

Gjeldene værobservasjon

Denne rapporten ble laget for 38 minutter siden, klokken 19:50 UTC
Vind 6 kt fra Sør
Temperatur 20°C
Luftfuktighet 73%
Trykk 1013 hPa
Sikt 10 km eller mer

METAR: EEKE 041950Z AUTO 19006KT 9999NDV NSC 20/15 Q1013

Tid: 23:28 (20:28 UTC)

Varsel

Denne rapporten ble laget for 6 timer og 28 minutter siden, klokken 14:00 UTC
Varsel gyldig fra 04. klokken 15 UTC til 04. klokken 21 UTC
Vind 8 kt fra Sør-sørvest
Sikt 10 km eller mer
Spredte skyer i en høyde av 3000 ft
Midlertidig
fra 04. klokken 15 UTC til 04. klokken 21 UTC
Spredte skyer i en høyde av 2500 ft, Bygeskyer.
Sannsynlighet 40% :
Midlertidig
fra 04. klokken 15 UTC til 04. klokken 18 UTC
Sikt: 4000 m
regnbyger

TAF: EEKE 041400Z 0415/0421 20008KT 9999 SCT030 TEMPO 0415/0421 SCT025CB PROB40 TEMPO 0415/0418 4000 SHRA

Værobservasjoner og værvarsel for over 4000 flyplasser (METAR- og TAF-rapporter).

Tilgjengelige stasjoner er representert av de røde og gule prikkene på kartet.

Hold musepekeren over prikken for å se navnet på stasjonen.

Klikk så for å se værobservasjoner og -varsler.

For å forandre kartet kan du klikke på den grønne knappen med svart kryss for å zoome inn, på den grønne knappen med strek for å zoome ut, eller på de grønne pilene for å se tilstøtende kart.


METAR-TAF: